Danube-spirit — YP2265 — position and weather

sailwx.info

Track history (hours):
 
Tides and Currents Weather Stations Pressure Air Temp Water Temp Dewpoint Dewpoint Depression Visibility Wind Speed Wind Dir Waves Ship Positions

Danube-spirit

Last reported at 2018-Jul-15 08:09 UTC. Time now 2018-Jul-20 08:24 UTC.
Position N 44°16' E 028°07'.

Length 34 m; draft 0.2 m.

Type: Ship. MMSI: 264162265.

Date/timePositionNaut miles runAvg speedWind from/ knotsBaromVisibWave heightAir tempDewpointWater temp
2018-Jul-15 08:09N 44°16' E 028°07'1 5.6
2018-Jul-15 07:59N 44°16' E 028°08'3 5.5
2018-Jul-15 07:29N 44°16' E 028°12'3 5.5
2018-Jul-15 07:00N 44°15' E 028°15'3 5.5
2018-Jul-15 06:30N 44°15' E 028°19'3 5.1
2018-Jul-15 06:00N 44°14' E 028°22'3 5.2
2018-Jul-15 05:27N 44°11' E 028°24'7 4.6
2018-Jul-15 03:51N 44°06' E 028°31'2 5.3
2018-Jul-15 03:30N 44°06' E 028°34'2 4.5
2018-Jul-15 03:01N 44°06' E 028°37'0 0.0
2018-Jul-15 02:29N 44°06' E 028°37'0 0.0
2018-Jul-15 02:01N 44°06' E 028°37'0 0.0
2018-Jul-15 01:30N 44°06' E 028°37'0 0.0
2018-Jul-15 01:00N 44°06' E 028°37'0 0.0
2018-Jul-15 00:30N 44°06' E 028°37'0 0.0
2018-Jul-15 00:00N 44°06' E 028°37'0 0.0
2018-Jul-14 23:30N 44°06' E 028°37'0 0.0
2018-Jul-14 23:00N 44°06' E 028°37'0 0.0
2018-Jul-14 22:31N 44°06' E 028°37'0 0.0
2018-Jul-14 22:00N 44°06' E 028°37'0 0.0
2018-Jul-14 21:31N 44°06' E 028°37'0 0.1
2018-Jul-14 21:01N 44°06' E 028°37'0 0.7
2018-Jul-14 20:31N 44°06' E 028°37'0 0.7
2018-Jul-14 20:00N 44°06' E 028°38'0 0.0
2018-Jul-14 19:31N 44°06' E 028°38'0 0.0
2018-Jul-14 19:00N 44°06' E 028°38'0 0.0
2018-Jul-14 18:31N 44°06' E 028°38'0 0.0
2018-Jul-14 18:00N 44°06' E 028°38'1 2.9
2018-Jul-14 17:31N 44°07' E 028°39'0 0.7
2018-Jul-14 17:00N 44°08' E 028°39'0 0.0
2018-Jul-14 16:31N 44°08' E 028°39'0 0.0
2018-Jul-14 16:00N 44°08' E 028°39'0 0.0
2018-Jul-14 15:31N 44°08' E 028°39'0 0.0
2018-Jul-14 15:01N 44°08' E 028°39'0 0.0
2018-Jul-14 14:31N 44°08' E 028°39'0 0.0
2018-Jul-14 13:31N 44°08' E 028°39'0 0.0
2018-Jul-14 13:00N 44°08' E 028°39'0 0.5
2018-Jul-14 12:30N 44°07' E 028°39'0 0.7
2018-Jul-14 12:01N 44°08' E 028°39'2 3.8
2018-Jul-14 11:31N 44°06' E 028°39'0 0.0
2018-Jul-14 11:00N 44°06' E 028°39'0 0.0
2018-Jul-14 10:31N 44°06' E 028°39'0 0.0
2018-Jul-14 10:01N 44°06' E 028°39'0 0.0
2018-Jul-14 09:31N 44°06' E 028°39'0 0.0
2018-Jul-14 09:01N 44°06' E 028°39'0 0.0
2018-Jul-14 08:30N 44°06' E 028°39'0 0.0
2018-Jul-14 08:01N 44°06' E 028°39'0 0.0
2018-Jul-14 07:31N 44°06' E 028°39'0 0.0
2018-Jul-14 07:00N 44°06' E 028°39'0 0.0
2018-Jul-14 06:30N 44°06' E 028°39'0 0.0
2018-Jul-14 06:01N 44°06' E 028°39'0 0.0
2018-Jul-14 05:31N 44°06' E 028°39'0 0.0
2018-Jul-14 05:00N 44°06' E 028°39'0 0.0
2018-Jul-14 04:30N 44°06' E 028°39'0 0.0
2018-Jul-14 04:00N 44°06' E 028°39'0 0.0
2018-Jul-14 03:30N 44°06' E 028°39'0 0.0
2018-Jul-14 03:01N 44°06' E 028°39'0 0.0
2018-Jul-14 02:31N 44°06' E 028°39'0 0.0
2018-Jul-14 02:00N 44°06' E 028°39'0 0.0
2018-Jul-14 01:30N 44°06' E 028°39'0 0.0
2018-Jul-14 01:00N 44°06' E 028°39'0 0.0
2018-Jul-14 00:30N 44°06' E 028°39'0 0.0
2018-Jul-14 00:00N 44°06' E 028°39'0 0.0
2018-Jul-13 23:31N 44°06' E 028°39'0 0.0
2018-Jul-13 23:01N 44°06' E 028°39'0 0.0
2018-Jul-13 22:31N 44°06' E 028°39'0 0.0
2018-Jul-13 22:01N 44°06' E 028°39'0 0.0
2018-Jul-13 21:30N 44°06' E 028°39'0 0.0
2018-Jul-13 21:01N 44°06' E 028°39'0 0.0
2018-Jul-13 20:31N 44°06' E 028°39'0 0.0
2018-Jul-13 20:00N 44°06' E 028°39'0 0.0
2018-Jul-13 19:31N 44°06' E 028°39'0 0.1
2018-Jul-13 19:01N 44°06' E 028°39'0 0.1
2018-Jul-13 18:31N 44°06' E 028°39'0 0.1
2018-Jul-13 18:00N 44°06' E 028°39'1 1.5
2018-Jul-13 17:31N 44°07' E 028°39'1 1.7
2018-Jul-13 17:00N 44°07' E 028°39'1 1.1
2018-Jul-13 16:30N 44°07' E 028°39'1 2.8
2018-Jul-13 16:00N 44°06' E 028°37'0 0.0
2018-Jul-13 15:30N 44°06' E 028°37'1 1.4
2018-Jul-13 15:01N 44°06' E 028°36'2 3.3
2018-Jul-13 14:30N 44°06' E 028°34'7 3.4
2018-Jul-13 12:32N 44°09' E 028°26'1 3.9
2018-Jul-13 12:17N 44°10' E 028°25'1 3.9
2018-Jul-13 12:00N 44°11' E 028°24'2 3.9
2018-Jul-13 11:30N 44°13' E 028°23'2 4.0
2018-Jul-13 10:57N 44°15' E 028°21'2 3.7
2018-Jul-13 10:19N 44°15' E 028°18'1 4.0
2018-Jul-13 10:00N 44°15' E 028°16'2 4.0
2018-Jul-13 09:31N 44°15' E 028°14'11 0.8
2018-Jul-12 20:35N 44°22' E 028°02'  
2018-Jul-07 05:18N 44°19' E 028°02'1 1.8
2018-Jul-07 04:51N 44°19' E 028°03'0 1.3
2018-Jul-07 04:30N 44°18' E 028°03'0 0.0
2018-Jul-07 03:59N 44°18' E 028°03'0 0.0
2018-Jul-07 03:30N 44°18' E 028°03'0 0.0
2018-Jul-07 03:00N 44°18' E 028°03'0 0.0
2018-Jul-07 02:30N 44°18' E 028°03'0 0.0
2018-Jul-07 02:00N 44°18' E 028°03'0 0.0
2018-Jul-07 01:30N 44°18' E 028°03'0 0.0
2018-Jul-07 01:00N 44°18' E 028°03'0 0.0
2018-Jul-07 00:30N 44°18' E 028°03'0 0.0
2018-Jul-07 00:00N 44°18' E 028°03'0 0.0
2018-Jul-06 23:30N 44°18' E 028°03'0 0.0
2018-Jul-06 22:59N 44°18' E 028°03'0 0.0
2018-Jul-06 22:30N 44°18' E 028°03'0 0.0
2018-Jul-06 22:00N 44°18' E 028°03'0 0.0
2018-Jul-06 20:41N 44°18' E 028°03'0 0.0
2018-Jul-06 20:16N 44°18' E 028°03'0 0.0
2018-Jul-06 20:00N 44°18' E 028°03'2 0.6
2018-Jul-06 17:18N 44°17' E 028°04'1 4.9
2018-Jul-06 17:00N 44°16' E 028°06'3 4.9
2018-Jul-06 16:23N 44°16' E 028°10'2 4.9
2018-Jul-06 16:00N 44°15' E 028°13'3 5.0
2018-Jul-06 15:30N 44°15' E 028°17'2 5.1
2018-Jul-06 15:00N 44°15' E 028°20'3 5.0
2018-Jul-06 14:30N 44°13' E 028°23'2 5.0
2018-Jul-06 14:00N 44°11' E 028°24'8 4.5
2018-Jul-06 12:14N 44°06' E 028°32'1 5.2
2018-Jul-06 12:00N 44°06' E 028°34'2 4.8
2018-Jul-06 11:30N 44°06' E 028°37'0 0.4
2018-Jul-06 11:00N 44°06' E 028°37'2 3.6
2018-Jul-06 10:30N 44°07' E 028°39'0 0.0
2018-Jul-06 10:00N 44°07' E 028°39'0 0.4
2018-Jul-06 09:31N 44°08' E 028°39'0 0.7
2018-Jul-06 09:00N 44°08' E 028°39'1 1.8
2018-Jul-06 08:30N 44°07' E 028°39'1 1.8
2018-Jul-06 08:00N 44°06' E 028°39'0 0.0
2018-Jul-06 07:31N 44°06' E 028°39'0 0.0
2018-Jul-06 07:00N 44°06' E 028°39'0 0.0
2018-Jul-06 06:30N 44°06' E 028°39'0 0.0
2018-Jul-06 06:00N 44°06' E 028°39'0 0.0
2018-Jul-06 05:31N 44°06' E 028°39'0 0.0
2018-Jul-06 05:01N 44°06' E 028°39'0 0.0
2018-Jul-06 04:30N 44°06' E 028°39'0 0.0
2018-Jul-06 04:01N 44°06' E 028°39'0 0.0
2018-Jul-06 03:31N 44°06' E 028°39'0 0.0
2018-Jul-06 03:00N 44°06' E 028°39'0 0.0
2018-Jul-06 02:30N 44°06' E 028°39'0 0.0
2018-Jul-06 02:00N 44°06' E 028°39'0 0.0
2018-Jul-06 01:30N 44°06' E 028°39'0 0.0
2018-Jul-06 01:01N 44°06' E 028°39'0 0.0
2018-Jul-06 00:30N 44°06' E 028°39'0 0.0
2018-Jul-06 00:00N 44°06' E 028°39'0 0.0
2018-Jul-05 23:31N 44°06' E 028°39'0 0.0
2018-Jul-05 23:01N 44°06' E 028°39'0 0.0
2018-Jul-05 22:30N 44°06' E 028°39'0 0.0
2018-Jul-05 22:01N 44°06' E 028°39'0 0.0
2018-Jul-05 21:31N 44°06' E 028°39'0 0.0
2018-Jul-05 21:00N 44°06' E 028°39'0 0.0
2018-Jul-05 20:30N 44°06' E 028°39'0 0.0
2018-Jul-05 20:00N 44°06' E 028°39'0 0.0
2018-Jul-05 19:30N 44°06' E 028°39'0 0.0
2018-Jul-05 19:01N 44°06' E 028°39'0 0.0
2018-Jul-05 18:31N 44°06' E 028°39'0 0.0
2018-Jul-05 18:01N 44°06' E 028°39'0 0.0
2018-Jul-05 17:31N 44°06' E 028°39'0 0.0
2018-Jul-05 17:01N 44°06' E 028°39'0 0.0
2018-Jul-05 16:31N 44°06' E 028°39'0 0.0
2018-Jul-05 16:01N 44°06' E 028°39'0 0.0
2018-Jul-05 15:31N 44°06' E 028°39'0 0.0
2018-Jul-05 15:01N 44°06' E 028°39'0 0.0
2018-Jul-05 14:01N 44°06' E 028°39'0 0.9
2018-Jul-05 13:31N 44°06' E 028°39'1 1.3
2018-Jul-05 13:01N 44°07' E 028°39'0 0.2
2018-Jul-05 12:31N 44°07' E 028°39'1 1.0
2018-Jul-05 12:01N 44°07' E 028°39'2 3.1
2018-Jul-05 11:30N 44°06' E 028°38'0 0.6
2018-Jul-05 11:00N 44°06' E 028°37'1 1.4
2018-Jul-05 10:30N 44°06' E 028°36'1 2.1
2018-Jul-05 09:58N 44°06' E 028°35'  
Track history (hours):
 
Tides and Currents Weather Stations Pressure Air Temp Water Temp Dewpoint Dewpoint Depression Visibility Wind Speed Wind Dir Waves Ship Positions

Danube-spirit

Last reported at 2018-Jul-15 08:09 UTC. Time now 2018-Jul-20 08:24 UTC.
Position N 44°16' E 028°07'.

Length 34 m; draft 0.2 m.

Type: Ship. MMSI: 264162265.

Date/timePositionNaut miles runAvg speedWind from/ knotsBaromVisibWave heightAir tempDewpointWater temp
2018-Jul-15 08:09N 44°16' E 028°07'1 5.6
2018-Jul-15 07:59N 44°16' E 028°08'3 5.5
2018-Jul-15 07:29N 44°16' E 028°12'3 5.5
2018-Jul-15 07:00N 44°15' E 028°15'3 5.5
2018-Jul-15 06:30N 44°15' E 028°19'3 5.1
2018-Jul-15 06:00N 44°14' E 028°22'3 5.2
2018-Jul-15 05:27N 44°11' E 028°24'7 4.6
2018-Jul-15 03:51N 44°06' E 028°31'2 5.3
2018-Jul-15 03:30N 44°06' E 028°34'2 4.5
2018-Jul-15 03:01N 44°06' E 028°37'0 0.0
2018-Jul-15 02:29N 44°06' E 028°37'0 0.0
2018-Jul-15 02:01N 44°06' E 028°37'0 0.0
2018-Jul-15 01:30N 44°06' E 028°37'0 0.0
2018-Jul-15 01:00N 44°06' E 028°37'0 0.0
2018-Jul-15 00:30N 44°06' E 028°37'0 0.0
2018-Jul-15 00:00N 44°06' E 028°37'0 0.0
2018-Jul-14 23:30N 44°06' E 028°37'0 0.0
2018-Jul-14 23:00N 44°06' E 028°37'0 0.0
2018-Jul-14 22:31N 44°06' E 028°37'0 0.0
2018-Jul-14 22:00N 44°06' E 028°37'0 0.0
2018-Jul-14 21:31N 44°06' E 028°37'0 0.1
2018-Jul-14 21:01N 44°06' E 028°37'0 0.7
2018-Jul-14 20:31N 44°06' E 028°37'0 0.7
2018-Jul-14 20:00N 44°06' E 028°38'0 0.0
2018-Jul-14 19:31N 44°06' E 028°38'0 0.0
2018-Jul-14 19:00N 44°06' E 028°38'0 0.0
2018-Jul-14 18:31N 44°06' E 028°38'0 0.0
2018-Jul-14 18:00N 44°06' E 028°38'1 2.9
2018-Jul-14 17:31N 44°07' E 028°39'0 0.7
2018-Jul-14 17:00N 44°08' E 028°39'0 0.0
2018-Jul-14 16:31N 44°08' E 028°39'0 0.0
2018-Jul-14 16:00N 44°08' E 028°39'0 0.0
2018-Jul-14 15:31N 44°08' E 028°39'0 0.0
2018-Jul-14 15:01N 44°08' E 028°39'0 0.0
2018-Jul-14 14:31N 44°08' E 028°39'0 0.0
2018-Jul-14 13:31N 44°08' E 028°39'0 0.0
2018-Jul-14 13:00N 44°08' E 028°39'0 0.5
2018-Jul-14 12:30N 44°07' E 028°39'0 0.7
2018-Jul-14 12:01N 44°08' E 028°39'2 3.8
2018-Jul-14 11:31N 44°06' E 028°39'0 0.0
2018-Jul-14 11:00N 44°06' E 028°39'0 0.0
2018-Jul-14 10:31N 44°06' E 028°39'0 0.0
2018-Jul-14 10:01N 44°06' E 028°39'0 0.0
2018-Jul-14 09:31N 44°06' E 028°39'0 0.0
2018-Jul-14 09:01N 44°06' E 028°39'0 0.0
2018-Jul-14 08:30N 44°06' E 028°39'0 0.0
2018-Jul-14 08:01N 44°06' E 028°39'0 0.0
2018-Jul-14 07:31N 44°06' E 028°39'0 0.0
2018-Jul-14 07:00N 44°06' E 028°39'0 0.0
2018-Jul-14 06:30N 44°06' E 028°39'0 0.0
2018-Jul-14 06:01N 44°06' E 028°39'0 0.0
2018-Jul-14 05:31N 44°06' E 028°39'0 0.0
2018-Jul-14 05:00N 44°06' E 028°39'0 0.0
2018-Jul-14 04:30N 44°06' E 028°39'0 0.0
2018-Jul-14 04:00N 44°06' E 028°39'0 0.0
2018-Jul-14 03:30N 44°06' E 028°39'0 0.0
2018-Jul-14 03:01N 44°06' E 028°39'0 0.0
2018-Jul-14 02:31N 44°06' E 028°39'0 0.0
2018-Jul-14 02:00N 44°06' E 028°39'0 0.0
2018-Jul-14 01:30N 44°06' E 028°39'0 0.0
2018-Jul-14 01:00N 44°06' E 028°39'0 0.0
2018-Jul-14 00:30N 44°06' E 028°39'0 0.0
2018-Jul-14 00:00N 44°06' E 028°39'0 0.0
2018-Jul-13 23:31N 44°06' E 028°39'0 0.0
2018-Jul-13 23:01N 44°06' E 028°39'0 0.0
2018-Jul-13 22:31N 44°06' E 028°39'0 0.0
2018-Jul-13 22:01N 44°06' E 028°39'0 0.0
2018-Jul-13 21:30N 44°06' E 028°39'0 0.0
2018-Jul-13 21:01N 44°06' E 028°39'0 0.0
2018-Jul-13 20:31N 44°06' E 028°39'0 0.0
2018-Jul-13 20:00N 44°06' E 028°39'0 0.0
2018-Jul-13 19:31N 44°06' E 028°39'0 0.1
2018-Jul-13 19:01N 44°06' E 028°39'0 0.1
2018-Jul-13 18:31N 44°06' E 028°39'0 0.1
2018-Jul-13 18:00N 44°06' E 028°39'1 1.5
2018-Jul-13 17:31N 44°07' E 028°39'1 1.7
2018-Jul-13 17:00N 44°07' E 028°39'1 1.1
2018-Jul-13 16:30N 44°07' E 028°39'1 2.8
2018-Jul-13 16:00N 44°06' E 028°37'0 0.0
2018-Jul-13 15:30N 44°06' E 028°37'1 1.4
2018-Jul-13 15:01N 44°06' E 028°36'2 3.3
2018-Jul-13 14:30N 44°06' E 028°34'7 3.4
2018-Jul-13 12:32N 44°09' E 028°26'1 3.9
2018-Jul-13 12:17N 44°10' E 028°25'1 3.9
2018-Jul-13 12:00N 44°11' E 028°24'2 3.9
2018-Jul-13 11:30N 44°13' E 028°23'2 4.0
2018-Jul-13 10:57N 44°15' E 028°21'2 3.7
2018-Jul-13 10:19N 44°15' E 028°18'1 4.0
2018-Jul-13 10:00N 44°15' E 028°16'2 4.0
2018-Jul-13 09:31N 44°15' E 028°14'11 0.8
2018-Jul-12 20:35N 44°22' E 028°02'  
2018-Jul-07 05:18N 44°19' E 028°02'1 1.8
2018-Jul-07 04:51N 44°19' E 028°03'0 1.3
2018-Jul-07 04:30N 44°18' E 028°03'0 0.0
2018-Jul-07 03:59N 44°18' E 028°03'0 0.0
2018-Jul-07 03:30N 44°18' E 028°03'0 0.0
2018-Jul-07 03:00N 44°18' E 028°03'0 0.0
2018-Jul-07 02:30N 44°18' E 028°03'0 0.0
2018-Jul-07 02:00N 44°18' E 028°03'0 0.0
2018-Jul-07 01:30N 44°18' E 028°03'0 0.0
2018-Jul-07 01:00N 44°18' E 028°03'0 0.0
2018-Jul-07 00:30N 44°18' E 028°03'0 0.0
2018-Jul-07 00:00N 44°18' E 028°03'0 0.0
2018-Jul-06 23:30N 44°18' E 028°03'0 0.0
2018-Jul-06 22:59N 44°18' E 028°03'0 0.0
2018-Jul-06 22:30N 44°18' E 028°03'0 0.0
2018-Jul-06 22:00N 44°18' E 028°03'0 0.0
2018-Jul-06 20:41N 44°18' E 028°03'0 0.0
2018-Jul-06 20:16N 44°18' E 028°03'0 0.0
2018-Jul-06 20:00N 44°18' E 028°03'2 0.6
2018-Jul-06 17:18N 44°17' E 028°04'1 4.9
2018-Jul-06 17:00N 44°16' E 028°06'3 4.9
2018-Jul-06 16:23N 44°16' E 028°10'2 4.9
2018-Jul-06 16:00N 44°15' E 028°13'3 5.0
2018-Jul-06 15:30N 44°15' E 028°17'2 5.1
2018-Jul-06 15:00N 44°15' E 028°20'3 5.0
2018-Jul-06 14:30N 44°13' E 028°23'2 5.0
2018-Jul-06 14:00N 44°11' E 028°24'8 4.5
2018-Jul-06 12:14N 44°06' E 028°32'1 5.2
2018-Jul-06 12:00N 44°06' E 028°34'2 4.8
2018-Jul-06 11:30N 44°06' E 028°37'0 0.4
2018-Jul-06 11:00N 44°06' E 028°37'2 3.6
2018-Jul-06 10:30N 44°07' E 028°39'0 0.0
2018-Jul-06 10:00N 44°07' E 028°39'0 0.4
2018-Jul-06 09:31N 44°08' E 028°39'0 0.7
2018-Jul-06 09:00N 44°08' E 028°39'1 1.8
2018-Jul-06 08:30N 44°07' E 028°39'1 1.8
2018-Jul-06 08:00N 44°06' E 028°39'0 0.0
2018-Jul-06 07:31N 44°06' E 028°39'0 0.0
2018-Jul-06 07:00N 44°06' E 028°39'0 0.0
2018-Jul-06 06:30N 44°06' E 028°39'0 0.0
2018-Jul-06 06:00N 44°06' E 028°39'0 0.0
2018-Jul-06 05:31N 44°06' E 028°39'0 0.0
2018-Jul-06 05:01N 44°06' E 028°39'0 0.0
2018-Jul-06 04:30N 44°06' E 028°39'0 0.0
2018-Jul-06 04:01N 44°06' E 028°39'0 0.0
2018-Jul-06 03:31N 44°06' E 028°39'0 0.0
2018-Jul-06 03:00N 44°06' E 028°39'0 0.0
2018-Jul-06 02:30N 44°06' E 028°39'0 0.0
2018-Jul-06 02:00N 44°06' E 028°39'0 0.0
2018-Jul-06 01:30N 44°06' E 028°39'0 0.0
2018-Jul-06 01:01N 44°06' E 028°39'0 0.0
2018-Jul-06 00:30N 44°06' E 028°39'0 0.0
2018-Jul-06 00:00N 44°06' E 028°39'0 0.0
2018-Jul-05 23:31N 44°06' E 028°39'0 0.0
2018-Jul-05 23:01N 44°06' E 028°39'0 0.0
2018-Jul-05 22:30N 44°06' E 028°39'0 0.0
2018-Jul-05 22:01N 44°06' E 028°39'0 0.0
2018-Jul-05 21:31N 44°06' E 028°39'0 0.0
2018-Jul-05 21:00N 44°06' E 028°39'0 0.0
2018-Jul-05 20:30N 44°06' E 028°39'0 0.0
2018-Jul-05 20:00N 44°06' E 028°39'0 0.0
2018-Jul-05 19:30N 44°06' E 028°39'0 0.0
2018-Jul-05 19:01N 44°06' E 028°39'0 0.0
2018-Jul-05 18:31N 44°06' E 028°39'0 0.0
2018-Jul-05 18:01N 44°06' E 028°39'0 0.0
2018-Jul-05 17:31N 44°06' E 028°39'0 0.0
2018-Jul-05 17:01N 44°06' E 028°39'0 0.0
2018-Jul-05 16:31N 44°06' E 028°39'0 0.0
2018-Jul-05 16:01N 44°06' E 028°39'0 0.0
2018-Jul-05 15:31N 44°06' E 028°39'0 0.0
2018-Jul-05 15:01N 44°06' E 028°39'0 0.0
2018-Jul-05 14:01N 44°06' E 028°39'0 0.9
2018-Jul-05 13:31N 44°06' E 028°39'1 1.3
2018-Jul-05 13:01N 44°07' E 028°39'0 0.2
2018-Jul-05 12:31N 44°07' E 028°39'1 1.0
2018-Jul-05 12:01N 44°07' E 028°39'2 3.1
2018-Jul-05 11:30N 44°06' E 028°38'0 0.6
2018-Jul-05 11:00N 44°06' E 028°37'1 1.4
2018-Jul-05 10:30N 44°06' E 028°36'1 2.1
2018-Jul-05 09:58N 44°06' E 028°35'  

Dump ship's entire track history